createdAt,value
2023-02-25T00:01:34.626Z,3.20
2023-02-25T00:04:02.047Z,3.30
2023-02-25T00:06:29.388Z,3.30
2023-02-25T00:08:56.700Z,3.10
2023-02-25T00:11:25.993Z,2.90
2023-02-25T00:13:54.042Z,2.70
2023-02-25T00:16:23.586Z,2.80
2023-02-25T00:18:58.459Z,2.90
2023-02-25T00:21:26.101Z,2.90
2023-02-25T00:23:53.616Z,3.00
2023-02-25T00:26:21.752Z,3.10
2023-02-25T00:28:50.030Z,3.20
2023-02-25T00:31:20.123Z,3.20
2023-02-25T00:33:48.183Z,3.20
2023-02-25T00:36:20.230Z,3.20
2023-02-25T00:38:49.236Z,3.10
2023-02-25T00:41:19.776Z,3.00
2023-02-25T00:43:52.686Z,2.90
2023-02-25T00:46:20.781Z,2.80
2023-02-25T00:48:48.568Z,2.70
2023-02-25T00:51:21.689Z,2.70
2023-02-25T00:53:50.421Z,2.50
2023-02-25T00:56:20.080Z,2.60
2023-02-25T00:58:49.270Z,2.70
2023-02-25T01:04:12.700Z,3.10
2023-02-25T01:06:40.055Z,3.10
2023-02-25T01:09:14.125Z,3.20
2023-02-25T01:11:45.103Z,3.20
2023-02-25T01:14:15.375Z,3.20
2023-02-25T01:16:44.540Z,3.20
2023-02-25T01:19:14.574Z,3.20
2023-02-25T01:21:45.353Z,3.30
2023-02-25T01:24:15.840Z,3.30
2023-02-25T01:26:45.408Z,3.30
2023-02-25T01:29:19.982Z,3.30
2023-02-25T01:31:48.558Z,3.40
2023-02-25T01:34:17.808Z,3.50
2023-02-25T01:36:46.337Z,3.50
2023-02-25T01:39:15.352Z,3.60
2023-02-25T01:41:46.409Z,3.60
2023-02-25T01:44:17.439Z,3.60
2023-02-25T01:46:51.057Z,3.50
2023-02-25T01:49:20.613Z,3.50
2023-02-25T01:51:51.711Z,3.40
2023-02-25T01:54:20.144Z,3.50
2023-02-25T01:56:52.565Z,3.40
2023-02-25T01:59:23.083Z,3.40
2023-02-25T02:01:51.084Z,3.40
2023-02-25T02:04:19.861Z,3.40
2023-02-25T02:06:49.631Z,3.30
2023-02-25T02:09:22.751Z,3.30
2023-02-25T02:11:51.260Z,3.10
2023-02-25T02:14:27.524Z,3.10
2023-02-25T02:17:07.491Z,3.20
2023-02-25T02:19:43.633Z,3.20
2023-02-25T02:22:42.775Z,3.20
2023-02-25T02:25:57.521Z,3.20
2023-02-25T02:29:12.025Z,3.30
2023-02-25T02:32:07.654Z,3.40
2023-02-25T02:34:57.333Z,3.40
2023-02-25T02:37:42.579Z,3.40
2023-02-25T02:40:21.379Z,3.40
2023-02-25T02:43:19.920Z,3.30
2023-02-25T02:46:07.243Z,3.10
2023-02-25T02:48:43.886Z,3.20
2023-02-25T02:51:26.849Z,3.30
2023-02-25T02:53:57.878Z,3.20
2023-02-25T02:56:28.500Z,3.00
2023-02-25T02:59:07.393Z,3.10
2023-02-25T03:01:44.317Z,3.10
2023-02-25T03:04:19.754Z,3.20
2023-02-25T03:06:54.947Z,3.20
2023-02-25T03:09:36.352Z,3.20
2023-02-25T03:12:03.834Z,3.30
2023-02-25T03:14:34.119Z,3.40
2023-02-25T03:17:08.998Z,3.50
2023-02-25T03:19:42.090Z,3.50
2023-02-25T03:22:16.575Z,3.60
2023-02-25T03:24:57.572Z,3.70
2023-02-25T03:27:37.143Z,3.60
2023-02-25T03:30:13.008Z,3.60
2023-02-25T03:32:44.938Z,3.50
2023-02-25T03:35:14.881Z,3.40
2023-02-25T03:37:44.189Z,3.30
2023-02-25T03:40:14.343Z,3.30
2023-02-25T03:42:49.392Z,3.40
2023-02-25T03:45:18.152Z,3.50
2023-02-25T03:47:45.862Z,3.50
2023-02-25T03:50:22.272Z,3.60
2023-02-25T03:52:54.806Z,3.60
2023-02-25T03:55:48.966Z,3.60
2023-02-25T03:58:16.372Z,3.60
2023-02-25T04:00:47.202Z,3.60
2023-02-25T04:03:14.800Z,3.60
2023-02-25T04:05:42.064Z,3.60
2023-02-25T04:08:15.793Z,3.60
2023-02-25T04:10:44.465Z,3.60
2023-02-25T04:13:14.519Z,3.60
2023-02-25T04:15:43.017Z,3.70
2023-02-25T04:18:10.318Z,3.60
2023-02-25T04:20:38.796Z,3.60
2023-02-25T04:23:06.372Z,3.70
2023-02-25T04:25:34.285Z,3.60
2023-02-25T04:28:01.508Z,3.70
2023-02-25T04:30:28.778Z,3.70
2023-02-25T04:32:56.101Z,3.70
2023-02-25T04:35:23.435Z,3.70
2023-02-25T04:37:50.677Z,3.70
2023-02-25T04:40:20.310Z,3.70
2023-02-25T04:42:48.460Z,3.70
2023-02-25T04:45:16.496Z,3.70
2023-02-25T04:47:43.978Z,3.70
2023-02-25T04:50:12.222Z,3.70
2023-02-25T04:52:39.593Z,3.70
2023-02-25T04:55:09.698Z,3.70
2023-02-25T04:57:42.226Z,3.80
2023-02-25T05:00:16.532Z,3.70
2023-02-25T05:02:43.862Z,3.70
2023-02-25T05:05:14.398Z,3.70
2023-02-25T05:07:42.014Z,3.70
2023-02-25T05:10:11.983Z,3.70
2023-02-25T05:12:39.238Z,3.70
2023-02-25T05:15:08.588Z,3.50
2023-02-25T05:17:36.216Z,3.20
2023-02-25T05:20:07.919Z,3.00
2023-02-25T05:22:35.199Z,2.90
2023-02-25T05:25:02.438Z,2.70
2023-02-25T05:27:29.723Z,2.80
2023-02-25T05:29:57.270Z,3.00
2023-02-25T05:32:24.840Z,3.10
2023-02-25T05:34:52.209Z,3.30
2023-02-25T05:37:19.519Z,3.30
2023-02-25T05:39:46.822Z,3.40
2023-02-25T05:42:14.097Z,3.40
2023-02-25T05:44:41.456Z,3.50
2023-02-25T05:47:09.056Z,3.50
2023-02-25T05:49:36.374Z,3.60
2023-02-25T05:52:03.647Z,3.60
2023-02-25T05:54:30.989Z,3.60
2023-02-25T05:56:58.269Z,3.60
2023-02-25T05:59:25.747Z,3.60
2023-02-25T06:01:53.081Z,3.60
2023-02-25T06:04:20.382Z,3.60
2023-02-25T06:06:50.212Z,3.60
2023-02-25T06:09:21.384Z,3.60
2023-02-25T06:11:48.974Z,3.60
2023-02-25T06:14:16.914Z,3.60
2023-02-25T06:16:44.538Z,3.60
2023-02-25T06:19:12.320Z,3.60
2023-02-25T06:21:39.676Z,3.60
2023-02-25T06:24:08.325Z,3.60
2023-02-25T06:26:41.633Z,3.60
2023-02-25T06:29:10.148Z,3.60
2023-02-25T06:31:37.787Z,3.60
2023-02-25T06:34:05.640Z,3.60
2023-02-25T06:36:33.445Z,3.60
2023-02-25T06:39:01.242Z,3.60
2023-02-25T06:41:28.520Z,3.70
2023-02-25T06:43:55.815Z,3.70
2023-02-25T06:46:26.457Z,3.70
2023-02-25T06:48:54.473Z,3.70
2023-02-25T06:51:22.516Z,3.60
2023-02-25T06:53:51.066Z,3.60
2023-02-25T06:56:20.256Z,3.60
2023-02-25T06:58:48.085Z,3.50
2023-02-25T07:01:16.608Z,3.40
2023-02-25T07:03:44.136Z,3.30
2023-02-25T07:06:11.807Z,3.10
2023-02-25T07:08:39.020Z,3.10
2023-02-25T07:11:18.183Z,3.20
2023-02-25T07:13:49.625Z,3.40
2023-02-25T07:16:17.651Z,3.70
2023-02-25T07:18:45.371Z,3.70
2023-02-25T07:21:13.847Z,3.80
2023-02-25T07:23:42.097Z,3.70
2023-02-25T07:26:11.518Z,3.50
2023-02-25T07:28:39.430Z,3.50
2023-02-25T07:31:15.848Z,3.60
2023-02-25T07:33:43.828Z,3.70
2023-02-25T07:36:11.707Z,3.80
2023-02-25T07:38:39.087Z,3.90
2023-02-25T07:41:14.806Z,4.00
2023-02-25T07:43:42.790Z,4.10
2023-02-25T07:46:10.733Z,4.30
2023-02-25T07:48:38.097Z,4.30
2023-02-25T07:51:11.347Z,4.40
2023-02-25T07:53:39.019Z,4.50
2023-02-25T07:56:07.581Z,4.60
2023-02-25T07:58:35.942Z,4.70
2023-02-25T08:01:11.486Z,4.90
2023-02-25T08:03:38.930Z,5.10
2023-02-25T08:06:08.158Z,5.10
2023-02-25T08:08:36.837Z,5.10
2023-02-25T08:11:12.642Z,5.20
2023-02-25T08:13:40.162Z,5.30
2023-02-25T08:16:10.121Z,5.40
2023-02-25T08:18:38.169Z,5.40
2023-02-25T08:21:05.582Z,5.50
2023-02-25T08:23:33.005Z,5.60
2023-02-25T08:26:00.838Z,5.60
2023-02-25T08:28:34.277Z,5.70
2023-02-25T08:31:04.487Z,5.70
2023-02-25T08:33:31.925Z,5.70
2023-02-25T08:36:17.618Z,5.70
2023-02-25T08:38:44.917Z,5.70
2023-02-25T08:41:12.705Z,5.60
2023-02-25T08:43:40.940Z,5.70
2023-02-25T08:46:08.933Z,5.80
2023-02-25T08:48:36.736Z,5.90
2023-02-25T08:51:08.348Z,6.00
2023-02-25T08:53:40.207Z,6.10
2023-02-25T08:56:14.371Z,6.30
2023-02-25T08:58:41.724Z,6.50
2023-02-25T09:01:14.884Z,6.60
2023-02-25T09:03:53.609Z,6.70
2023-02-25T09:06:23.606Z,7.40
2023-02-25T09:08:52.132Z,9.30
2023-02-25T09:11:20.651Z,11.80
2023-02-25T09:13:48.399Z,11.80
2023-02-25T09:16:17.303Z,12.00
2023-02-25T09:18:48.863Z,11.40
2023-02-25T09:21:16.472Z,10.90
2023-02-25T09:23:43.984Z,10.90
2023-02-25T09:26:11.732Z,10.50
2023-02-25T09:28:39.246Z,10.40
2023-02-25T09:31:06.606Z,9.60
2023-02-25T09:33:35.824Z,8.60
2023-02-25T09:36:08.552Z,7.80
2023-02-25T09:38:37.606Z,7.20
2023-02-25T09:41:33.083Z,6.80
2023-02-25T09:44:06.241Z,6.50
2023-02-25T09:46:36.403Z,6.40
2023-02-25T09:49:09.913Z,6.50
2023-02-25T09:51:41.820Z,6.60
2023-02-25T09:54:32.170Z,6.80
2023-02-25T09:57:02.532Z,6.90
2023-02-25T09:59:30.622Z,7.00
2023-02-25T10:02:22.690Z,7.10
2023-02-25T10:05:22.486Z,7.20
2023-02-25T10:08:02.680Z,6.90
2023-02-25T10:11:15.334Z,6.60
2023-02-25T10:14:00.117Z,6.60
2023-02-25T10:16:45.365Z,6.40
2023-02-25T10:19:28.705Z,5.90
2023-02-25T10:22:11.051Z,5.60
2023-02-25T10:24:46.552Z,5.70
2023-02-25T10:27:49.207Z,5.60
2023-02-25T10:30:22.649Z,5.60
2023-02-25T10:32:50.623Z,5.50
2023-02-25T10:35:25.617Z,5.40
2023-02-25T10:37:53.469Z,5.30
2023-02-25T10:40:24.449Z,5.30
2023-02-25T10:42:54.510Z,5.40
2023-02-25T10:45:28.143Z,6.40
2023-02-25T10:48:17.383Z,7.20
2023-02-25T10:51:01.006Z,9.10
2023-02-25T10:53:28.562Z,10.50
2023-02-25T10:55:56.282Z,10.20
2023-02-25T10:58:38.220Z,9.10
2023-02-25T11:01:16.181Z,8.50
2023-02-25T11:03:52.567Z,7.50
2023-02-25T11:06:25.121Z,6.90
2023-02-25T11:08:56.306Z,6.90
2023-02-25T11:11:35.921Z,6.90
2023-02-25T11:14:05.297Z,7.00
2023-02-25T11:16:38.879Z,7.00
2023-02-25T11:19:28.004Z,6.90
2023-02-25T11:21:57.867Z,7.00
2023-02-25T11:24:33.915Z,7.40
2023-02-25T11:27:04.010Z,7.10
2023-02-25T11:29:38.581Z,6.90
2023-02-25T11:32:12.201Z,6.80
2023-02-25T11:34:48.763Z,7.00
2023-02-25T11:37:37.563Z,7.60
2023-02-25T11:40:25.672Z,8.20
2023-02-25T11:43:06.371Z,8.20
2023-02-25T11:45:40.326Z,8.20
2023-02-25T11:48:18.927Z,8.00
2023-02-25T11:51:16.937Z,7.70
2023-02-25T11:54:08.090Z,7.50
2023-02-25T11:56:48.647Z,7.50
2023-02-25T11:59:58.269Z,7.40
2023-02-25T12:02:45.734Z,7.70
2023-02-25T12:05:43.612Z,8.20
2023-02-25T12:08:35.288Z,8.70
2023-02-25T12:11:28.902Z,9.10
2023-02-25T12:14:05.290Z,9.00
2023-02-25T12:17:06.865Z,8.80
2023-02-25T12:19:49.081Z,8.20
2023-02-25T12:22:34.254Z,7.60
2023-02-25T12:25:20.275Z,7.50
2023-02-25T12:27:59.528Z,7.50
2023-02-25T12:31:04.634Z,7.90
2023-02-25T12:34:09.465Z,8.10
2023-02-25T12:36:46.494Z,8.20
2023-02-25T12:39:26.618Z,7.80
2023-02-25T12:42:18.127Z,6.60
2023-02-25T12:44:59.616Z,6.20
2023-02-25T12:47:54.965Z,6.10
2023-02-25T12:50:38.381Z,6.10
2023-02-25T12:53:45.285Z,6.50
2023-02-25T12:56:30.328Z,6.80
2023-02-25T12:58:57.577Z,6.80
2023-02-25T13:02:16.136Z,6.50
2023-02-25T13:05:01.494Z,6.20
2023-02-25T13:07:31.834Z,6.10
2023-02-25T13:10:20.418Z,6.10
2023-02-25T13:13:02.806Z,6.10
2023-02-25T13:15:56.363Z,6.30
2023-02-25T13:18:50.575Z,6.50
2023-02-25T13:21:48.296Z,6.30
2023-02-25T13:24:41.697Z,6.40
2023-02-25T13:27:51.762Z,6.40
2023-02-25T13:30:35.435Z,6.60
2023-02-25T13:33:33.954Z,6.70
2023-02-25T13:36:07.093Z,6.40
2023-02-25T13:38:43.322Z,6.10
2023-02-25T13:41:30.113Z,5.90
2023-02-25T13:44:31.022Z,5.90
2023-02-25T13:47:07.157Z,6.20
2023-02-25T13:49:55.791Z,6.60
2023-02-25T13:52:42.220Z,6.60
2023-02-25T13:55:46.265Z,6.50
2023-02-25T13:58:59.345Z,6.20
2023-02-25T14:01:32.707Z,5.90
2023-02-25T14:04:24.020Z,5.90
2023-02-25T14:07:17.060Z,6.00
2023-02-25T14:09:47.398Z,6.10
2023-02-25T14:12:39.074Z,6.10
2023-02-25T14:15:27.465Z,6.10
2023-02-25T14:18:12.253Z,6.10
2023-02-25T14:20:45.577Z,6.00
2023-02-25T14:23:30.946Z,5.90
2023-02-25T14:26:19.811Z,5.80
2023-02-25T14:29:20.761Z,5.80
2023-02-25T14:32:14.836Z,5.80
2023-02-25T14:34:57.343Z,5.80
2023-02-25T14:37:47.848Z,5.80
2023-02-25T14:40:27.262Z,5.80
2023-02-25T14:43:04.571Z,5.80
2023-02-25T14:46:14.698Z,5.70
2023-02-25T14:49:00.371Z,5.70
2023-02-25T14:51:40.201Z,5.60
2023-02-25T14:54:26.390Z,5.60
2023-02-25T14:57:20.431Z,5.60
2023-02-25T15:00:09.646Z,5.60
2023-02-25T15:02:50.216Z,5.60
2023-02-25T15:05:56.332Z,5.60
2023-02-25T15:08:35.396Z,5.50
2023-02-25T15:11:28.923Z,5.40
2023-02-25T15:14:25.545Z,5.40
2023-02-25T15:17:14.480Z,5.40
2023-02-25T15:20:29.153Z,5.30
2023-02-25T15:23:07.713Z,5.20
2023-02-25T15:25:50.641Z,5.20
2023-02-25T15:28:30.177Z,5.20
2023-02-25T15:31:00.842Z,5.20
2023-02-25T15:33:38.233Z,5.10
2023-02-25T15:36:14.633Z,5.10
2023-02-25T15:38:50.692Z,5.00
2023-02-25T15:41:26.810Z,5.00
2023-02-25T15:43:54.216Z,4.90
2023-02-25T15:46:34.013Z,4.80
2023-02-25T15:49:33.062Z,4.80
2023-02-25T15:52:04.767Z,4.80
2023-02-25T15:54:32.087Z,4.70
2023-02-25T15:57:01.305Z,4.70
2023-02-25T15:59:52.794Z,4.80
2023-02-25T16:02:29.003Z,4.70
2023-02-25T16:05:09.936Z,4.60
2023-02-25T16:07:41.124Z,4.60
2023-02-25T16:10:30.867Z,4.60
2023-02-25T16:12:58.617Z,4.60
2023-02-25T16:15:32.923Z,4.60
2023-02-25T16:18:17.418Z,4.50
2023-02-25T16:20:51.343Z,4.60
2023-02-25T16:23:19.814Z,4.50
2023-02-25T16:26:13.537Z,4.40
2023-02-25T16:28:54.802Z,4.30
2023-02-25T16:31:29.414Z,4.20
2023-02-25T16:34:05.275Z,4.20
2023-02-25T16:36:39.597Z,4.20
2023-02-25T16:39:20.042Z,4.20
2023-02-25T16:41:47.922Z,4.10
2023-02-25T16:44:31.081Z,4.00
2023-02-25T16:46:58.574Z,4.00
2023-02-25T16:49:40.259Z,3.90
2023-02-25T16:52:07.887Z,3.90
2023-02-25T16:54:38.469Z,3.80
2023-02-25T16:57:09.639Z,3.60
2023-02-25T16:59:38.491Z,3.50
2023-02-25T17:02:17.540Z,3.50
2023-02-25T17:04:55.898Z,3.40
2023-02-25T17:07:25.249Z,3.30
2023-02-25T17:10:04.435Z,3.20
2023-02-25T17:12:45.760Z,2.90
2023-02-25T17:15:22.087Z,2.70
2023-02-25T17:17:56.331Z,2.60
2023-02-25T17:20:27.703Z,2.40
2023-02-25T17:22:56.858Z,2.40
2023-02-25T17:25:32.359Z,2.30
2023-02-25T17:28:00.013Z,2.20
2023-02-25T17:30:33.581Z,2.20
2023-02-25T17:33:01.158Z,2.20
2023-02-25T17:35:28.672Z,2.30
2023-02-25T17:37:56.972Z,2.20
2023-02-25T17:40:27.080Z,2.30
2023-02-25T17:43:24.644Z,2.30
2023-02-25T17:45:56.797Z,2.20
2023-02-25T17:48:27.166Z,2.20
2023-02-25T17:51:07.770Z,2.20
2023-02-25T17:53:39.119Z,2.20
2023-02-25T17:56:13.814Z,2.30
2023-02-25T17:58:41.656Z,2.30
2023-02-25T18:01:20.115Z,2.30
2023-02-25T18:03:47.792Z,2.20
2023-02-25T18:06:43.727Z,2.30
2023-02-25T18:09:38.438Z,2.20
2023-02-25T18:12:34.404Z,2.10
2023-02-25T18:15:26.990Z,2.00
2023-02-25T18:17:56.753Z,1.90
2023-02-25T18:20:30.262Z,1.80
2023-02-25T18:23:06.394Z,1.80
2023-02-25T18:25:40.905Z,1.80
2023-02-25T18:28:15.248Z,1.70
2023-02-25T18:30:43.577Z,1.60
2023-02-25T18:33:11.835Z,1.50
2023-02-25T18:35:42.388Z,1.50
2023-02-25T18:38:17.462Z,1.30
2023-02-25T18:40:47.374Z,1.20
2023-02-25T18:43:19.363Z,1.20
2023-02-25T18:45:47.548Z,1.10
2023-02-25T18:48:15.085Z,1.10
2023-02-25T18:50:44.465Z,0.90
2023-02-25T18:53:18.127Z,0.90
2023-02-25T18:55:45.854Z,0.90
2023-02-25T18:58:14.678Z,0.80
2023-02-25T19:00:44.309Z,0.80
2023-02-25T19:03:15.906Z,0.80
2023-02-25T19:05:43.947Z,0.80
2023-02-25T19:08:16.525Z,0.70
2023-02-25T19:10:44.897Z,0.70
2023-02-25T19:13:28.012Z,0.60
2023-02-25T19:15:55.740Z,0.50
2023-02-25T19:18:23.401Z,0.40
2023-02-25T19:20:50.746Z,0.50
2023-02-25T19:23:18.680Z,0.40
2023-02-25T19:25:48.042Z,0.30
2023-02-25T19:28:15.856Z,0.30
2023-02-25T19:30:44.633Z,0.30
2023-02-25T19:33:14.117Z,0.20
2023-02-25T19:35:43.179Z,0.20
2023-02-25T19:38:17.240Z,0.10
2023-02-25T19:40:46.375Z,0.10
2023-02-25T19:43:15.164Z,0.20
2023-02-25T19:45:43.231Z,0.30
2023-02-25T19:48:10.802Z,0.30
2023-02-25T19:50:41.309Z,0.40
2023-02-25T19:53:09.146Z,0.40
2023-02-25T19:55:37.491Z,0.40
2023-02-25T19:58:05.679Z,0.40
2023-02-25T20:00:33.091Z,0.50
2023-02-25T20:03:00.519Z,0.50
2023-02-25T20:05:27.914Z,0.50
2023-02-25T20:07:55.171Z,0.60
2023-02-25T20:10:22.468Z,0.60
2023-02-25T20:12:49.859Z,0.70
2023-02-25T20:15:17.304Z,0.70
2023-02-25T20:17:45.519Z,0.70
2023-02-25T20:20:14.669Z,0.70
2023-02-25T20:22:42.407Z,0.70
2023-02-25T20:25:11.506Z,0.80
2023-02-25T20:27:43.231Z,0.80
2023-02-25T20:30:14.433Z,0.80
2023-02-25T20:32:44.085Z,0.70
2023-02-25T20:35:21.370Z,0.80
2023-02-25T20:38:13.785Z,0.70
2023-02-25T20:40:41.393Z,0.70
2023-02-25T20:43:10.619Z,0.70
2023-02-25T20:45:38.382Z,0.60
2023-02-25T20:48:06.000Z,0.70
2023-02-25T20:50:38.209Z,0.70
2023-02-25T20:53:05.660Z,0.70
2023-02-25T20:55:33.061Z,0.70
2023-02-25T20:58:00.556Z,0.70
2023-02-25T21:00:27.890Z,0.60
2023-02-25T21:02:55.281Z,0.50
2023-02-25T21:05:22.619Z,0.50
2023-02-25T21:07:51.062Z,0.50
2023-02-25T21:10:19.356Z,0.50
2023-02-25T21:12:46.737Z,0.70
2023-02-25T21:15:14.105Z,0.70
2023-02-25T21:17:42.234Z,0.90
2023-02-25T21:20:11.347Z,0.90
2023-02-25T21:22:38.649Z,0.80
2023-02-25T21:25:06.181Z,0.90
2023-02-25T21:27:34.876Z,0.90
2023-02-25T21:30:02.998Z,0.70
2023-02-25T21:32:30.311Z,0.60
2023-02-25T21:34:57.632Z,0.50
2023-02-25T21:37:24.944Z,0.50
2023-02-25T21:39:52.266Z,0.40
2023-02-25T21:42:19.664Z,0.30
2023-02-25T21:44:46.957Z,0.20
2023-02-25T21:47:14.247Z,0.20
2023-02-25T21:49:41.561Z,0.10
2023-02-25T21:52:08.881Z,0.00
2023-02-25T21:54:36.223Z,0.10
2023-02-25T21:57:03.571Z,0.10
2023-02-25T21:59:31.536Z,0.20
2023-02-25T22:01:58.859Z,0.10
2023-02-25T22:04:26.144Z,0.10
2023-02-25T22:06:53.412Z,0.00
2023-02-25T22:09:20.686Z,0.00
2023-02-25T22:11:48.030Z,-0.10
2023-02-25T22:14:15.239Z,-0.20
2023-02-25T22:16:42.623Z,-0.40
2023-02-25T22:19:09.927Z,-0.50
2023-02-25T22:21:37.278Z,-0.70
2023-02-25T22:24:05.471Z,-0.70
2023-02-25T22:26:35.030Z,-0.80
2023-02-25T22:29:07.880Z,-0.90
2023-02-25T22:31:35.910Z,-1.00
2023-02-25T22:34:03.715Z,-1.10
2023-02-25T22:36:31.017Z,-1.20
2023-02-25T22:38:58.450Z,-1.30
2023-02-25T22:41:29.126Z,-1.40
2023-02-25T22:43:58.488Z,-1.40
2023-02-25T22:46:30.713Z,-1.50
2023-02-25T22:48:58.523Z,-1.50
2023-02-25T22:51:28.506Z,-1.50
2023-02-25T22:53:56.303Z,-1.60
2023-02-25T22:56:24.752Z,-1.70
2023-02-25T22:58:52.486Z,-1.70
2023-02-25T23:01:21.408Z,-1.80
2023-02-25T23:03:50.048Z,-1.80
2023-02-25T23:06:20.261Z,-1.90
2023-02-25T23:08:48.092Z,-1.90
2023-02-25T23:11:17.339Z,-1.90
2023-02-25T23:13:48.730Z,-2.00
2023-02-25T23:16:21.870Z,-2.10
2023-02-25T23:18:50.144Z,-2.10
2023-02-25T23:21:22.031Z,-2.20
2023-02-25T23:23:51.791Z,-2.10
2023-02-25T23:26:23.243Z,-2.10
2023-02-25T23:28:59.135Z,-2.10
2023-02-25T23:31:29.758Z,-2.20
2023-02-25T23:34:08.779Z,-2.10
2023-02-25T23:36:37.812Z,-2.00
2023-02-25T23:39:07.762Z,-2.00
2023-02-25T23:41:36.208Z,-2.00
2023-02-25T23:44:04.257Z,-1.80
2023-02-25T23:46:32.133Z,-1.70
2023-02-25T23:49:02.206Z,-1.50
2023-02-25T23:51:29.999Z,-1.20
2023-02-25T23:54:00.227Z,-0.90
2023-02-25T23:56:28.993Z,-0.80
2023-02-25T23:58:57.021Z,-0.60
